createdAt,value
2023-04-09T00:00:51.298Z,25.50
2023-04-09T00:01:51.296Z,23.00
2023-04-09T00:02:51.315Z,22.40
2023-04-09T00:03:51.372Z,23.30
2023-04-09T00:04:51.296Z,22.10
2023-04-09T00:05:51.232Z,23.50
2023-04-09T00:06:51.339Z,24.10
2023-04-09T00:07:51.225Z,23.40
2023-04-09T00:08:51.457Z,22.40
2023-04-09T00:09:51.197Z,22.00
2023-04-09T00:10:51.183Z,24.10
2023-04-09T00:11:51.190Z,23.20
2023-04-09T00:12:51.152Z,22.80
2023-04-09T00:13:51.138Z,26.20
2023-04-09T00:14:51.157Z,23.70
2023-04-09T00:15:51.156Z,23.10
2023-04-09T00:16:51.106Z,23.50
2023-04-09T00:17:51.146Z,20.60
2023-04-09T00:18:51.338Z,22.90
2023-04-09T00:19:51.098Z,24.20
2023-04-09T00:20:51.059Z,22.10
2023-04-09T00:21:51.048Z,25.10
2023-04-09T00:22:51.046Z,23.50
2023-04-09T00:23:51.036Z,21.70
2023-04-09T00:24:51.062Z,24.30
2023-04-09T00:25:51.000Z,23.40
2023-04-09T00:26:51.001Z,27.50
2023-04-09T00:27:50.978Z,23.40
2023-04-09T00:28:51.177Z,27.50
2023-04-09T00:29:50.988Z,27.80
2023-04-09T00:30:50.957Z,27.20
2023-04-09T00:31:51.011Z,26.10
2023-04-09T00:32:51.000Z,24.90
2023-04-09T00:33:50.911Z,27.40
2023-04-09T00:34:50.923Z,27.10
2023-04-09T00:35:50.913Z,25.00
2023-04-09T00:36:50.887Z,27.50
2023-04-09T00:37:50.879Z,24.60
2023-04-09T00:38:51.136Z,25.10
2023-04-09T00:39:50.846Z,24.50
2023-04-09T00:40:50.881Z,26.60
2023-04-09T00:41:50.822Z,25.50
2023-04-09T00:42:50.811Z,23.70
2023-04-09T00:43:50.801Z,23.90
2023-04-09T00:44:50.838Z,27.20
2023-04-09T00:45:50.809Z,25.50
2023-04-09T00:46:50.768Z,28.50
2023-04-09T00:47:50.803Z,26.40
2023-04-09T00:48:51.034Z,27.60
2023-04-09T00:49:50.769Z,26.10
2023-04-09T00:50:50.738Z,24.00
2023-04-09T00:51:50.708Z,24.70
2023-04-09T00:52:50.698Z,25.10
2023-04-09T00:53:50.687Z,24.20
2023-04-09T00:54:50.678Z,23.80
2023-04-09T00:55:51.320Z,27.30
2023-04-09T00:56:50.681Z,23.20
2023-04-09T00:57:50.641Z,24.60
2023-04-09T00:58:50.927Z,23.70
2023-04-09T00:59:50.626Z,22.90
2023-04-09T01:00:50.695Z,22.80
2023-04-09T01:01:50.630Z,25.40
2023-04-09T01:02:50.759Z,23.80
2023-04-09T01:03:50.642Z,24.00
2023-04-09T01:04:50.564Z,24.10
2023-04-09T01:05:50.575Z,24.70
2023-04-09T01:06:50.544Z,24.10
2023-04-09T01:07:50.563Z,20.80
2023-04-09T01:08:50.959Z,23.00
2023-04-09T01:09:50.529Z,24.90
2023-04-09T01:10:50.497Z,23.40
2023-04-09T01:11:50.495Z,23.90
2023-04-09T01:12:50.496Z,23.60
2023-04-09T01:13:50.481Z,24.20
2023-04-09T01:14:50.449Z,24.40
2023-04-09T01:15:50.436Z,24.90
2023-04-09T01:16:50.468Z,25.00
2023-04-09T01:17:50.457Z,21.60
2023-04-09T01:18:50.594Z,28.00
2023-04-09T01:19:50.404Z,25.30
2023-04-09T01:20:50.400Z,22.40
2023-04-09T01:21:50.391Z,26.80
2023-04-09T01:22:50.360Z,24.30
2023-04-09T01:23:50.344Z,23.20
2023-04-09T01:24:50.348Z,21.90
2023-04-09T01:25:50.350Z,21.60
2023-04-09T01:26:50.313Z,21.30
2023-04-09T01:27:50.301Z,21.90
2023-04-09T01:28:50.699Z,23.70
2023-04-09T01:29:50.301Z,20.10
2023-04-09T01:30:50.307Z,18.80
2023-04-09T01:31:50.272Z,20.70
2023-04-09T01:32:50.292Z,21.40
2023-04-09T01:33:50.235Z,22.00
2023-04-09T01:34:50.251Z,20.60
2023-04-09T01:35:50.233Z,18.90
2023-04-09T01:36:50.202Z,20.90
2023-04-09T01:37:50.197Z,20.70
2023-04-09T01:38:50.430Z,19.60
2023-04-09T01:39:50.167Z,20.60
2023-04-09T01:40:50.171Z,20.70
2023-04-09T01:41:50.147Z,22.10
2023-04-09T01:42:50.155Z,20.20
2023-04-09T01:43:50.125Z,22.60
2023-04-09T01:44:50.125Z,22.10
2023-04-09T01:45:50.125Z,20.00
2023-04-09T01:46:50.108Z,18.10
2023-04-09T01:47:50.153Z,18.20
2023-04-09T01:48:50.244Z,19.70
2023-04-09T01:49:50.061Z,20.40
2023-04-09T01:50:50.048Z,18.60
2023-04-09T01:51:50.056Z,16.70
2023-04-09T01:52:50.027Z,18.20
2023-04-09T01:53:50.014Z,21.20
2023-04-09T01:54:49.996Z,19.20
2023-04-09T01:55:49.990Z,17.10
2023-04-09T01:56:49.993Z,18.60
2023-04-09T01:57:49.973Z,19.60
2023-04-09T01:58:51.061Z,18.80
2023-04-09T01:59:49.969Z,21.00
2023-04-09T02:00:49.973Z,21.40
2023-04-09T02:01:50.252Z,21.50
2023-04-09T02:02:50.044Z,23.60
2023-04-09T02:03:49.964Z,20.00
2023-04-09T02:04:49.909Z,21.80
2023-04-09T02:05:49.900Z,19.90
2023-04-09T02:06:49.881Z,19.60
2023-04-09T02:07:49.867Z,17.10
2023-04-09T02:08:50.063Z,19.80
2023-04-09T02:09:49.838Z,19.00
2023-04-09T02:10:49.835Z,21.10
2023-04-09T02:11:49.878Z,21.40
2023-04-09T02:12:49.810Z,19.00
2023-04-09T02:13:49.787Z,21.10
2023-04-09T02:14:49.783Z,20.90
2023-04-09T02:15:49.791Z,20.90
2023-04-09T02:16:49.792Z,21.70
2023-04-09T02:17:49.863Z,22.50
2023-04-09T02:18:49.828Z,23.30
2023-04-09T02:19:49.745Z,21.60
2023-04-09T02:20:49.707Z,23.10
2023-04-09T02:21:49.721Z,23.30
2023-04-09T02:22:49.702Z,22.80
2023-04-09T02:23:49.678Z,24.90
2023-04-09T02:24:49.659Z,23.00
2023-04-09T02:25:49.650Z,23.50
2023-04-09T02:26:49.662Z,22.90
2023-04-09T02:27:49.654Z,22.30
2023-04-09T02:28:49.821Z,20.00
2023-04-09T02:29:49.633Z,28.10
2023-04-09T02:30:49.598Z,23.90
2023-04-09T02:31:49.608Z,28.20
2023-04-09T02:32:49.654Z,24.20
2023-04-09T02:33:49.561Z,20.40
2023-04-09T02:34:49.552Z,22.60
2023-04-09T02:35:49.567Z,26.40
2023-04-09T02:36:49.547Z,29.70
2023-04-09T02:37:49.526Z,26.60
2023-04-09T02:38:49.557Z,28.10
2023-04-09T02:39:49.495Z,21.70
2023-04-09T02:40:49.482Z,22.90
2023-04-09T02:41:49.476Z,20.00
2023-04-09T02:42:49.489Z,22.70
2023-04-09T02:43:49.477Z,20.20
2023-04-09T02:44:49.451Z,18.60
2023-04-09T02:45:49.429Z,23.70
2023-04-09T02:46:49.647Z,16.20
2023-04-09T02:47:49.423Z,15.40
2023-04-09T02:48:49.624Z,15.40
2023-04-09T02:49:49.418Z,15.00
2023-04-09T02:50:49.374Z,14.90
2023-04-09T02:51:49.369Z,16.20
2023-04-09T02:52:49.353Z,15.60
2023-04-09T02:53:49.361Z,15.30
2023-04-09T02:54:49.328Z,16.60
2023-04-09T02:55:49.318Z,15.40
2023-04-09T02:56:49.324Z,17.00
2023-04-09T02:57:49.297Z,14.70
2023-04-09T02:58:49.329Z,16.00
2023-04-09T02:59:49.282Z,17.20
2023-04-09T03:00:49.258Z,14.30
2023-04-09T03:01:49.402Z,17.60
2023-04-09T03:02:49.376Z,16.40
2023-04-09T03:03:49.332Z,16.10
2023-04-09T03:04:49.234Z,15.80
2023-04-09T03:05:49.208Z,18.50
2023-04-09T03:06:49.194Z,15.60
2023-04-09T03:07:49.181Z,17.30
2023-04-09T03:08:49.376Z,14.90
2023-04-09T03:09:49.157Z,17.20
2023-04-09T03:10:49.156Z,16.60
2023-04-09T03:11:49.136Z,18.90
2023-04-09T03:12:49.149Z,15.60
2023-04-09T03:13:49.120Z,17.70
2023-04-09T03:14:49.117Z,15.70
2023-04-09T03:15:49.109Z,17.50
2023-04-09T03:16:49.090Z,19.50
2023-04-09T03:17:49.121Z,14.40
2023-04-09T03:18:49.104Z,18.30
2023-04-09T03:19:49.070Z,18.90
2023-04-09T03:20:49.056Z,16.90
2023-04-09T03:21:49.030Z,16.40
2023-04-09T03:22:49.032Z,14.80
2023-04-09T03:23:49.001Z,16.20
2023-04-09T03:24:49.001Z,18.60
2023-04-09T03:25:48.990Z,16.30
2023-04-09T03:26:48.971Z,16.90
2023-04-09T03:27:48.986Z,18.20
2023-04-09T03:28:48.984Z,16.90
2023-04-09T03:29:48.939Z,17.50
2023-04-09T03:30:48.956Z,18.20
2023-04-09T03:31:48.919Z,16.90
2023-04-09T03:32:48.928Z,17.00
2023-04-09T03:33:48.919Z,16.90
2023-04-09T03:34:48.898Z,15.60
2023-04-09T03:35:48.913Z,17.10
2023-04-09T03:36:48.915Z,16.90
2023-04-09T03:37:48.853Z,17.10
2023-04-09T03:38:48.867Z,17.40
2023-04-09T03:39:50.204Z,17.00
2023-04-09T03:40:48.840Z,16.40
2023-04-09T03:41:48.808Z,16.60
2023-04-09T03:42:48.789Z,14.60
2023-04-09T03:43:48.806Z,16.90
2023-04-09T03:44:48.774Z,17.00
2023-04-09T03:45:48.766Z,16.20
2023-04-09T03:46:48.820Z,16.50
2023-04-09T03:47:48.794Z,15.70
2023-04-09T03:48:48.752Z,18.70
2023-04-09T03:49:48.733Z,15.80
2023-04-09T03:50:48.703Z,14.80
2023-04-09T03:51:48.693Z,16.40
2023-04-09T03:52:48.700Z,14.50
2023-04-09T03:53:48.691Z,15.40
2023-04-09T03:54:48.667Z,16.70
2023-04-09T03:55:48.665Z,16.70
2023-04-09T03:56:48.642Z,15.10
2023-04-09T03:57:48.638Z,15.90
2023-04-09T03:58:48.607Z,16.00
2023-04-09T03:59:48.617Z,17.20
2023-04-09T04:00:48.596Z,15.80
2023-04-09T04:01:48.714Z,14.60
2023-04-09T04:02:48.749Z,16.20
2023-04-09T04:03:48.783Z,14.40
2023-04-09T04:04:48.633Z,16.80
2023-04-09T04:05:48.529Z,14.80
2023-04-09T04:06:48.527Z,15.00
2023-04-09T04:07:48.509Z,14.80
2023-04-09T04:08:48.511Z,14.60
2023-04-09T04:09:48.485Z,15.70
2023-04-09T04:10:48.494Z,15.10
2023-04-09T04:11:48.466Z,15.40
2023-04-09T04:12:48.483Z,16.70
2023-04-09T04:13:48.446Z,15.80
2023-04-09T04:14:48.454Z,16.50
2023-04-09T04:15:48.420Z,16.60
2023-04-09T04:16:48.420Z,18.70
2023-04-09T04:17:48.421Z,15.50
2023-04-09T04:18:48.399Z,15.50
2023-04-09T04:19:48.382Z,18.60
2023-04-09T04:20:48.380Z,13.90
2023-04-09T04:21:48.377Z,17.00
2023-04-09T04:22:48.338Z,17.60
2023-04-09T04:23:48.356Z,16.60
2023-04-09T04:24:48.331Z,14.80
2023-04-09T04:25:48.325Z,13.90
2023-04-09T04:26:48.289Z,15.70
2023-04-09T04:27:48.288Z,17.50
2023-04-09T04:28:48.294Z,15.70
2023-04-09T04:29:48.271Z,16.00
2023-04-09T04:30:48.245Z,14.70
2023-04-09T04:31:48.284Z,15.30
2023-04-09T04:32:48.291Z,15.30
2023-04-09T04:33:48.264Z,17.20
2023-04-09T04:34:48.207Z,14.70
2023-04-09T04:35:48.250Z,16.90
2023-04-09T04:36:48.178Z,14.70
2023-04-09T04:37:48.188Z,15.00
2023-04-09T04:38:48.174Z,14.20
2023-04-09T04:39:48.149Z,13.30
2023-04-09T04:40:48.155Z,15.50
2023-04-09T04:41:48.137Z,14.60
2023-04-09T04:42:48.134Z,17.60
2023-04-09T04:43:48.106Z,12.80
2023-04-09T04:44:48.087Z,15.10
2023-04-09T04:45:48.122Z,13.70
2023-04-09T04:46:48.781Z,15.80
2023-04-09T04:47:48.159Z,14.20
2023-04-09T04:48:48.042Z,18.80
2023-04-09T04:49:48.039Z,15.20
2023-04-09T04:50:48.023Z,15.10
2023-04-09T04:51:48.042Z,16.50
2023-04-09T04:52:48.029Z,14.60
2023-04-09T04:53:47.991Z,16.70
2023-04-09T04:54:48.003Z,14.20
2023-04-09T04:55:47.991Z,13.50
2023-04-09T04:56:47.998Z,13.50
2023-04-09T04:57:47.951Z,13.80
2023-04-09T04:58:47.941Z,16.00
2023-04-09T04:59:47.922Z,15.90
2023-04-09T05:00:47.976Z,14.10
2023-04-09T05:01:47.913Z,17.30
2023-04-09T05:02:48.105Z,14.70
2023-04-09T05:03:47.935Z,17.60
2023-04-09T05:04:47.865Z,18.70
2023-04-09T05:05:47.874Z,18.80
2023-04-09T05:06:47.852Z,17.80
2023-04-09T05:07:47.835Z,16.70
2023-04-09T05:08:47.834Z,17.70
2023-04-09T05:09:47.816Z,17.70
2023-04-09T05:10:47.797Z,17.00
2023-04-09T05:11:47.792Z,17.30
2023-04-09T05:12:47.809Z,16.80
2023-04-09T05:13:47.764Z,17.90
2023-04-09T05:14:47.765Z,16.90
2023-04-09T05:15:47.749Z,18.40
2023-04-09T05:16:47.944Z,19.00
2023-04-09T05:17:47.836Z,17.80
2023-04-09T05:18:47.714Z,17.70
2023-04-09T05:19:47.697Z,17.50
2023-04-09T05:20:47.683Z,16.70
2023-04-09T05:21:47.686Z,16.70
2023-04-09T05:22:47.699Z,17.40
2023-04-09T05:23:47.694Z,17.40
2023-04-09T05:24:47.656Z,16.30
2023-04-09T05:25:47.632Z,17.80
2023-04-09T05:26:47.627Z,18.20
2023-04-09T05:27:47.627Z,18.20
2023-04-09T05:28:47.613Z,17.90
2023-04-09T05:29:47.584Z,18.50
2023-04-09T05:30:47.659Z,18.90
2023-04-09T05:31:47.572Z,15.80
2023-04-09T05:32:47.606Z,18.40
2023-04-09T05:33:47.583Z,16.60
2023-04-09T05:34:47.529Z,19.70
2023-04-09T05:35:47.553Z,16.30
2023-04-09T05:36:47.506Z,16.00
2023-04-09T05:37:48.279Z,17.30
2023-04-09T05:38:47.496Z,16.30
2023-04-09T05:39:47.496Z,15.30
2023-04-09T05:40:47.460Z,15.60
2023-04-09T05:41:47.449Z,17.00
2023-04-09T05:42:47.437Z,17.20
2023-04-09T05:43:47.454Z,15.20
2023-04-09T05:44:47.433Z,16.60
2023-04-09T05:45:47.452Z,15.90
2023-04-09T05:46:47.394Z,14.50
2023-04-09T05:47:47.414Z,16.20
2023-04-09T05:48:47.390Z,17.60
2023-04-09T05:49:47.363Z,16.60
2023-04-09T05:50:54.384Z,16.30
2023-04-09T05:51:48.406Z,16.40
2023-04-09T05:52:47.336Z,16.70
2023-04-09T05:53:47.314Z,17.10
2023-04-09T05:54:47.328Z,16.90
2023-04-09T05:55:47.312Z,15.40
2023-04-09T05:56:47.314Z,16.80
2023-04-09T05:57:47.290Z,15.70
2023-04-09T05:58:47.263Z,16.80
2023-04-09T05:59:47.271Z,15.80
2023-04-09T06:00:47.264Z,16.10
2023-04-09T06:01:47.242Z,15.70
2023-04-09T06:02:47.346Z,16.80
2023-04-09T06:03:47.263Z,17.90
2023-04-09T06:04:47.216Z,15.80
2023-04-09T06:05:47.200Z,16.10
2023-04-09T06:06:47.186Z,16.20
2023-04-09T06:07:47.186Z,15.60
2023-04-09T06:08:47.153Z,15.10
2023-04-09T06:09:47.159Z,17.60
2023-04-09T06:10:47.144Z,15.10
2023-04-09T06:11:47.109Z,14.30
2023-04-09T06:12:47.105Z,16.50
2023-04-09T06:13:47.102Z,14.30
2023-04-09T06:14:47.086Z,16.20
2023-04-09T06:15:47.149Z,16.70
2023-04-09T06:16:47.098Z,16.70
2023-04-09T06:17:47.065Z,17.20
2023-04-09T06:18:47.034Z,16.50
2023-04-09T06:19:47.020Z,16.20
2023-04-09T06:20:47.036Z,18.00
2023-04-09T06:21:47.018Z,17.00
2023-04-09T06:22:46.988Z,17.10
2023-04-09T06:23:46.982Z,19.00
2023-04-09T06:24:46.988Z,18.30
2023-04-09T06:25:46.969Z,19.80
2023-04-09T06:26:46.979Z,18.30
2023-04-09T06:27:46.933Z,17.00
2023-04-09T06:28:47.021Z,14.80
2023-04-09T06:29:46.912Z,17.50
2023-04-09T06:30:46.928Z,15.60
2023-04-09T06:31:46.910Z,17.70
2023-04-09T06:32:53.818Z,17.00
2023-04-09T06:33:47.894Z,18.70
2023-04-09T06:34:46.869Z,18.80
2023-04-09T06:35:46.862Z,14.70
2023-04-09T06:36:46.843Z,16.60
2023-04-09T06:37:46.839Z,17.40
2023-04-09T06:38:46.811Z,20.10
2023-04-09T06:39:58.150Z,19.20
2023-04-09T06:40:47.788Z,16.60
2023-04-09T06:41:46.791Z,19.50
2023-04-09T06:42:46.787Z,19.10
2023-04-09T06:43:46.914Z,21.80
2023-04-09T06:44:46.734Z,23.80
2023-04-09T06:45:46.722Z,21.50
2023-04-09T06:46:46.760Z,18.60
2023-04-09T06:47:46.740Z,21.60
2023-04-09T06:48:46.710Z,20.00
2023-04-09T06:49:46.703Z,18.70
2023-04-09T06:50:46.670Z,18.60
2023-04-09T06:51:46.668Z,18.50
2023-04-09T06:52:46.667Z,17.60
2023-04-09T06:53:47.522Z,16.50
2023-04-09T06:54:46.630Z,17.40
2023-04-09T06:55:46.623Z,15.60
2023-04-09T06:56:46.790Z,15.90
2023-04-09T06:57:46.620Z,17.80
2023-04-09T06:58:46.579Z,17.90
2023-04-09T06:59:46.610Z,16.10
2023-04-09T07:00:46.558Z,19.50
2023-04-09T07:01:46.603Z,16.40
2023-04-09T07:02:46.729Z,18.50
2023-04-09T07:03:46.626Z,16.20
2023-04-09T07:04:46.736Z,16.80
2023-04-09T07:05:46.517Z,17.20
2023-04-09T07:06:46.503Z,20.50
2023-04-09T07:07:46.477Z,20.30
2023-04-09T07:08:46.467Z,19.10
2023-04-09T07:09:46.473Z,18.90
2023-04-09T07:10:46.446Z,19.70
2023-04-09T07:11:46.433Z,20.80
2023-04-09T07:12:46.422Z,19.90
2023-04-09T07:13:46.409Z,21.10
2023-04-09T07:14:46.417Z,20.10
2023-04-09T07:15:46.489Z,21.70
2023-04-09T07:16:46.382Z,19.60
2023-04-09T07:17:46.384Z,23.30
2023-04-09T07:18:46.362Z,19.80
2023-04-09T07:19:46.337Z,20.70
2023-04-09T07:20:46.346Z,17.90
2023-04-09T07:21:46.341Z,17.60
2023-04-09T07:22:46.316Z,18.40
2023-04-09T07:23:46.304Z,17.00
2023-04-09T07:24:46.298Z,17.50
2023-04-09T07:25:46.328Z,15.50
2023-04-09T07:26:46.343Z,14.40
2023-04-09T07:27:46.246Z,18.80
2023-04-09T07:28:46.262Z,18.50
2023-04-09T07:29:46.225Z,16.70
2023-04-09T07:30:46.237Z,15.70
2023-04-09T07:31:46.247Z,13.80
2023-04-09T07:32:46.256Z,14.10
2023-04-09T07:33:46.220Z,15.40
2023-04-09T07:34:46.178Z,14.40
2023-04-09T07:35:46.189Z,15.30
2023-04-09T07:36:46.193Z,14.90
2023-04-09T07:37:46.131Z,16.10
2023-04-09T07:38:46.118Z,14.90
2023-04-09T07:39:46.116Z,15.30
2023-04-09T07:40:46.107Z,14.80
2023-04-09T07:41:46.334Z,14.60
2023-04-09T07:42:46.080Z,15.00
2023-04-09T07:43:46.093Z,14.70
2023-04-09T07:44:46.064Z,12.80
2023-04-09T07:45:46.041Z,11.70
2023-04-09T07:46:46.082Z,12.70
2023-04-09T07:47:46.063Z,12.50
2023-04-09T07:48:47.840Z,14.90
2023-04-09T07:49:45.999Z,24.30
2023-04-09T07:50:45.988Z,12.20
2023-04-09T07:51:45.997Z,11.40
2023-04-09T07:52:45.986Z,11.50
2023-04-09T07:53:45.949Z,11.30
2023-04-09T07:54:45.952Z,10.80
2023-04-09T07:55:45.935Z,11.30
2023-04-09T07:56:45.972Z,13.10
2023-04-09T07:57:45.926Z,13.30
2023-04-09T07:58:45.903Z,10.20
2023-04-09T07:59:45.906Z,11.60
2023-04-09T08:00:45.880Z,14.30
2023-04-09T08:01:45.957Z,15.20
2023-04-09T08:02:46.028Z,12.80
2023-04-09T08:03:46.065Z,13.50
2023-04-09T08:04:45.966Z,12.70
2023-04-09T08:05:45.816Z,12.50
2023-04-09T08:06:45.862Z,13.00
2023-04-09T08:07:45.818Z,12.70
2023-04-09T08:08:45.813Z,14.50
2023-04-09T08:09:45.771Z,15.50
2023-04-09T08:10:45.779Z,12.80
2023-04-09T08:11:45.744Z,13.60
2023-04-09T08:12:45.744Z,12.60
2023-04-09T08:13:45.722Z,13.30
2023-04-09T08:14:45.711Z,12.90
2023-04-09T08:15:45.700Z,12.90
2023-04-09T08:16:45.927Z,12.40
2023-04-09T08:17:45.819Z,17.90
2023-04-09T08:18:45.865Z,20.80
2023-04-09T08:19:45.667Z,17.80
2023-04-09T08:20:45.797Z,10.80
2023-04-09T08:21:45.664Z,12.50
2023-04-09T08:22:45.622Z,16.10
2023-04-09T08:23:45.627Z,13.80
2023-04-09T08:24:45.626Z,12.70
2023-04-09T08:25:45.598Z,11.60
2023-04-09T08:26:45.603Z,11.80
2023-04-09T08:27:45.565Z,12.80
2023-04-09T08:28:45.586Z,11.40
2023-04-09T08:29:45.570Z,12.00
2023-04-09T08:30:46.887Z,11.70
2023-04-09T08:31:45.593Z,14.50
2023-04-09T08:32:45.602Z,11.50
2023-04-09T08:33:45.490Z,12.10
2023-04-09T08:34:45.488Z,14.40
2023-04-09T08:35:45.488Z,11.90
2023-04-09T08:36:45.535Z,12.50
2023-04-09T08:37:45.449Z,11.30
2023-04-09T08:38:45.435Z,12.10
2023-04-09T08:39:46.387Z,14.00
2023-04-09T08:40:45.429Z,11.80
2023-04-09T08:41:45.422Z,11.10
2023-04-09T08:42:45.413Z,12.10
2023-04-09T08:43:56.936Z,13.60
2023-04-09T08:44:46.371Z,12.30
2023-04-09T08:45:45.401Z,13.00
2023-04-09T08:46:45.365Z,12.40
2023-04-09T08:47:45.370Z,13.50
2023-04-09T08:48:45.380Z,13.60
2023-04-09T08:49:45.307Z,12.00
2023-04-09T08:50:45.300Z,13.20
2023-04-09T08:51:45.311Z,13.30
2023-04-09T08:52:45.278Z,11.30
2023-04-09T08:53:45.295Z,13.10
2023-04-09T08:54:45.278Z,14.20
2023-04-09T08:55:45.235Z,13.00
2023-04-09T08:56:45.269Z,13.40
2023-04-09T08:57:45.273Z,11.80
2023-04-09T08:58:45.209Z,13.10
2023-04-09T08:59:45.207Z,13.10
2023-04-09T09:00:45.182Z,14.80
2023-04-09T09:01:45.256Z,13.60
2023-04-09T09:02:45.217Z,12.50
2023-04-09T09:03:45.266Z,12.50
2023-04-09T09:04:45.160Z,13.30
2023-04-09T09:05:45.133Z,12.80
2023-04-09T09:06:45.133Z,12.60
2023-04-09T09:07:45.096Z,12.90
2023-04-09T09:08:45.102Z,12.00
2023-04-09T09:09:45.096Z,11.60
2023-04-09T09:10:45.065Z,12.60
2023-04-09T09:11:45.063Z,12.20
2023-04-09T09:12:45.086Z,10.40
2023-04-09T09:13:53.990Z,12.30
2023-04-09T09:14:45.086Z,11.50
2023-04-09T09:15:45.062Z,11.80
2023-04-09T09:16:45.128Z,12.60
2023-04-09T09:17:45.013Z,12.30
2023-04-09T09:18:45.027Z,14.20
2023-04-09T09:19:44.960Z,13.90
2023-04-09T09:20:44.971Z,15.30
2023-04-09T09:21:44.962Z,14.90
2023-04-09T09:22:44.951Z,15.60
2023-04-09T09:23:45.016Z,14.20
2023-04-09T09:24:44.903Z,15.40
2023-04-09T09:25:44.895Z,12.00
2023-04-09T09:26:44.971Z,12.30
2023-04-09T09:27:52.586Z,11.90
2023-04-09T09:28:44.962Z,11.60
2023-04-09T09:29:44.912Z,13.20
2023-04-09T09:30:45.610Z,12.50
2023-04-09T09:31:44.844Z,12.90
2023-04-09T09:32:44.875Z,10.50
2023-04-09T09:33:44.885Z,13.10
2023-04-09T09:34:44.908Z,13.30
2023-04-09T09:35:44.980Z,13.50
2023-04-09T09:36:44.968Z,13.50
2023-04-09T09:37:44.772Z,12.20
2023-04-09T09:38:44.746Z,14.40
2023-04-09T09:39:44.787Z,15.00
2023-04-09T09:40:44.757Z,12.20
2023-04-09T09:41:44.711Z,11.40
2023-04-09T09:42:44.735Z,12.50
2023-04-09T09:43:44.741Z,11.00
2023-04-09T09:44:44.674Z,12.60
2023-04-09T09:45:44.826Z,11.60
2023-04-09T09:46:44.658Z,12.00
2023-04-09T09:47:44.681Z,10.40
2023-04-09T09:48:44.700Z,12.00
2023-04-09T09:49:44.620Z,11.60
2023-04-09T09:50:44.634Z,12.90
2023-04-09T09:51:44.616Z,13.80
2023-04-09T09:52:56.040Z,12.30
2023-04-09T09:53:44.655Z,15.10
2023-04-09T09:54:44.595Z,12.50
2023-04-09T09:55:44.724Z,13.00
2023-04-09T09:56:44.583Z,12.70
2023-04-09T09:57:44.527Z,11.30
2023-04-09T09:58:44.531Z,12.30
2023-04-09T09:59:44.622Z,12.70
2023-04-09T10:00:44.489Z,13.10
2023-04-09T10:01:44.595Z,13.90
2023-04-09T10:02:44.551Z,14.70
2023-04-09T10:03:45.701Z,13.40
2023-04-09T10:04:44.528Z,14.40
2023-04-09T10:05:44.480Z,15.90
2023-04-09T10:06:44.492Z,17.80
2023-04-09T10:07:44.468Z,15.30
2023-04-09T10:08:44.470Z,12.70
2023-04-09T10:09:44.427Z,13.80
2023-04-09T10:10:44.455Z,12.60
2023-04-09T10:11:44.371Z,13.10
2023-04-09T10:12:44.382Z,12.00
2023-04-09T10:13:44.344Z,12.90
2023-04-09T10:14:44.327Z,12.20
2023-04-09T10:15:44.426Z,12.40
2023-04-09T10:16:44.338Z,12.80
2023-04-09T10:17:44.348Z,14.60
2023-04-09T10:18:44.307Z,14.90
2023-04-09T10:19:44.288Z,12.20
2023-04-09T10:20:44.284Z,11.30
2023-04-09T10:21:44.269Z,14.50
2023-04-09T10:22:44.255Z,12.20
2023-04-09T10:23:44.230Z,13.40
2023-04-09T10:24:44.221Z,11.50
2023-04-09T10:25:44.221Z,10.90
2023-04-09T10:26:44.191Z,12.40
2023-04-09T10:27:44.176Z,14.50
2023-04-09T10:28:44.177Z,12.20
2023-04-09T10:29:44.156Z,13.30
2023-04-09T10:30:44.164Z,12.80
2023-04-09T10:31:44.150Z,12.00
2023-04-09T10:32:44.195Z,12.50
2023-04-09T10:33:44.117Z,12.60
2023-04-09T10:34:44.161Z,10.90
2023-04-09T10:35:44.122Z,11.40
2023-04-09T10:36:44.073Z,13.80
2023-04-09T10:37:44.061Z,12.20
2023-04-09T10:38:44.052Z,12.10
2023-04-09T10:39:44.109Z,11.40
2023-04-09T10:40:44.050Z,12.50
2023-04-09T10:41:44.038Z,11.10
2023-04-09T10:42:44.009Z,10.80
2023-04-09T10:43:43.991Z,16.50
2023-04-09T10:44:44.009Z,11.00
2023-04-09T10:45:43.972Z,10.60
2023-04-09T10:46:44.959Z,11.00
2023-04-09T10:47:44.038Z,10.80
2023-04-09T10:48:43.934Z,12.10
2023-04-09T10:49:43.952Z,11.10
2023-04-09T10:50:45.854Z,11.00
2023-04-09T10:51:43.933Z,11.70
2023-04-09T10:52:43.892Z,11.50
2023-04-09T10:53:47.358Z,11.90
2023-04-09T10:54:43.970Z,12.70
2023-04-09T10:55:43.877Z,11.20
2023-04-09T10:56:43.874Z,11.50
2023-04-09T10:57:43.860Z,11.20
2023-04-09T10:58:43.834Z,11.40
2023-04-09T10:59:43.830Z,12.10
2023-04-09T11:00:43.813Z,11.30
2023-04-09T11:01:43.909Z,12.00
2023-04-09T11:02:43.936Z,11.00
2023-04-09T11:03:43.938Z,10.70
2023-04-09T11:04:43.788Z,11.40
2023-04-09T11:05:43.771Z,10.90
2023-04-09T11:06:43.743Z,9.90
2023-04-09T11:07:43.781Z,10.30
2023-04-09T11:08:43.734Z,11.50
2023-04-09T11:09:43.709Z,11.90
2023-04-09T11:10:43.710Z,11.50
2023-04-09T11:11:43.694Z,10.20
2023-04-09T11:12:43.667Z,11.20
2023-04-09T11:13:43.677Z,11.10
2023-04-09T11:14:43.644Z,11.80
2023-04-09T11:15:43.700Z,10.30
2023-04-09T11:16:43.706Z,11.10
2023-04-09T11:17:43.683Z,10.00
2023-04-09T11:18:43.594Z,11.10
2023-04-09T11:19:43.616Z,11.70
2023-04-09T11:20:43.606Z,11.80
2023-04-09T11:21:43.609Z,10.00
2023-04-09T11:22:43.562Z,9.70
2023-04-09T11:23:43.540Z,10.00
2023-04-09T11:24:43.559Z,11.30
2023-04-09T11:25:43.535Z,12.80
2023-04-09T11:26:43.533Z,10.80
2023-04-09T11:27:44.260Z,9.90
2023-04-09T11:28:43.525Z,11.70
2023-04-09T11:29:43.513Z,10.00
2023-04-09T11:30:43.459Z,9.20
2023-04-09T11:31:43.519Z,9.60
2023-04-09T11:32:43.519Z,10.70
2023-04-09T11:33:43.481Z,9.20
2023-04-09T11:34:43.413Z,12.60
2023-04-09T11:35:43.484Z,15.20
2023-04-09T11:36:43.969Z,10.40
2023-04-09T11:37:43.397Z,11.00
2023-04-09T11:38:43.369Z,12.10
2023-04-09T11:39:43.402Z,9.60
2023-04-09T11:40:43.353Z,10.30
2023-04-09T11:41:43.445Z,13.00
2023-04-09T11:42:43.322Z,10.50
2023-04-09T11:43:43.349Z,8.90
2023-04-09T11:44:43.336Z,8.10
2023-04-09T11:45:43.295Z,7.60
2023-04-09T11:46:43.321Z,8.10
2023-04-09T11:47:43.282Z,8.40
2023-04-09T11:48:43.258Z,8.90
2023-04-09T11:49:43.271Z,8.30
2023-04-09T11:50:43.260Z,9.60
2023-04-09T11:51:43.262Z,8.40
2023-04-09T11:52:43.214Z,8.40
2023-04-09T11:53:43.223Z,9.70
2023-04-09T11:54:43.201Z,9.40
2023-04-09T11:55:43.229Z,11.60
2023-04-09T11:56:43.171Z,9.40
2023-04-09T11:57:43.182Z,10.70
2023-04-09T11:58:43.165Z,7.70
2023-04-09T11:59:43.134Z,8.90
2023-04-09T12:00:43.123Z,8.60
2023-04-09T12:01:43.203Z,8.60
2023-04-09T12:02:43.285Z,7.60
2023-04-09T12:03:43.326Z,10.60
2023-04-09T12:04:43.177Z,10.20
2023-04-09T12:05:45.027Z,7.80
2023-04-09T12:06:44.053Z,8.70
2023-04-09T12:07:51.573Z,7.60
2023-04-09T12:08:44.051Z,6.60
2023-04-09T12:09:43.021Z,7.00
2023-04-09T12:10:43.074Z,6.90
2023-04-09T12:11:43.005Z,8.30
2023-04-09T12:12:42.982Z,8.60
2023-04-09T12:13:43.203Z,6.80
2023-04-09T12:14:43.015Z,10.10
2023-04-09T12:15:42.958Z,7.20
2023-04-09T12:16:43.085Z,8.30
2023-04-09T12:17:42.993Z,6.20
2023-04-09T12:18:42.914Z,6.00
2023-04-09T12:19:42.935Z,7.60
2023-04-09T12:20:42.922Z,7.00
2023-04-09T12:21:42.919Z,6.90
2023-04-09T12:22:42.871Z,6.40
2023-04-09T12:23:42.879Z,7.30
2023-04-09T12:24:42.862Z,6.50
2023-04-09T12:25:42.867Z,6.50
2023-04-09T12:26:42.845Z,6.80
2023-04-09T12:27:42.839Z,6.00
2023-04-09T12:28:42.834Z,6.70
2023-04-09T12:29:42.814Z,11.00
2023-04-09T12:30:42.805Z,7.40
2023-04-09T12:31:42.824Z,8.60
2023-04-09T12:32:42.801Z,6.50
2023-04-09T12:33:42.780Z,7.90
2023-04-09T12:34:42.734Z,7.00
2023-04-09T12:35:42.789Z,6.80
2023-04-09T12:36:42.712Z,7.80
2023-04-09T12:37:42.718Z,7.30
2023-04-09T12:38:42.702Z,8.20
2023-04-09T12:39:42.701Z,7.60
2023-04-09T12:40:42.665Z,7.10
2023-04-09T12:41:42.652Z,7.00
2023-04-09T12:42:42.658Z,6.70
2023-04-09T12:43:43.948Z,7.20
2023-04-09T12:44:42.615Z,6.90
2023-04-09T12:45:42.661Z,6.40
2023-04-09T12:46:42.590Z,5.70
2023-04-09T12:47:42.647Z,6.70
2023-04-09T12:48:42.576Z,6.30
2023-04-09T12:49:42.557Z,8.80
2023-04-09T12:50:42.563Z,6.80
2023-04-09T12:51:42.550Z,6.00
2023-04-09T12:52:42.558Z,7.20
2023-04-09T12:53:42.530Z,7.30
2023-04-09T12:54:42.510Z,8.00
2023-04-09T12:55:43.068Z,6.80